X  Cerrar Datos meteorológicos de aviación METAR     LEAL Alicante-Elche Miguel Hernández Airport
Temperatura
27°C Temperatura
13°C Punto de rocío
42% Humedad



Viento
14 KM/H
9 MPH
4 M/S
8 NUDO



100°
E
Condiciones actuales

Claro Claro
Presión 1018.96 (hPa) - 30.09 (inHg)
Visibilidad 6 (milla) - 9.7 (km)
Aeropuerto
Código de aeropuerto LEAL

Localidad: Alicante-Elche Miguel Hernández Airport
Distancia: 60 (km)

Metar:
LEAL 210930Z 10008KT 070V140 CAVOK 27/13 Q1019 NOSIG

Hora: 21-06-2024 11:30 CEST